createdAt,value
2018-06-22T00:01:48.141Z,0.80
2018-06-22T00:04:17.491Z,0.93
2018-06-22T00:06:47.007Z,0.90
2018-06-22T00:09:16.580Z,0.80
2018-06-22T00:11:46.205Z,0.80
2018-06-22T00:14:15.528Z,0.90
2018-06-22T00:16:45.084Z,1.00
2018-06-22T00:19:14.373Z,0.80
2018-06-22T00:21:43.451Z,0.80
2018-06-22T00:24:12.567Z,0.60
2018-06-22T00:26:41.886Z,0.90
2018-06-22T00:29:11.110Z,0.73
2018-06-22T00:31:40.230Z,0.80
2018-06-22T00:34:09.597Z,0.63
2018-06-22T00:36:39.012Z,0.70
2018-06-22T00:39:09.631Z,0.90
2018-06-22T00:41:38.925Z,1.00
2018-06-22T00:44:08.248Z,0.63
2018-06-22T00:46:38.100Z,1.10
2018-06-22T00:49:07.635Z,0.63
2018-06-22T00:51:36.924Z,0.70
2018-06-22T00:54:14.370Z,0.70
2018-06-22T00:56:43.946Z,0.80
2018-06-22T00:59:13.247Z,0.70
2018-06-22T01:01:42.658Z,0.70
2018-06-22T01:04:11.954Z,0.60
2018-06-22T01:06:41.077Z,0.70
2018-06-22T01:09:11.992Z,0.80
2018-06-22T01:11:41.363Z,0.90
2018-06-22T01:14:10.463Z,0.77
2018-06-22T01:16:39.777Z,0.60
2018-06-22T01:19:09.521Z,0.83
2018-06-22T01:21:38.803Z,1.00
2018-06-22T01:24:08.124Z,0.70
2018-06-22T01:26:37.672Z,0.50
2018-06-22T01:29:12.625Z,1.00
2018-06-22T01:31:42.003Z,0.70
2018-06-22T01:34:11.516Z,0.80
2018-06-22T01:36:40.602Z,0.70
2018-06-22T01:39:09.674Z,0.73
2018-06-22T01:41:38.746Z,0.87
2018-06-22T01:44:07.856Z,0.77
2018-06-22T01:46:38.214Z,0.90
2018-06-22T01:49:07.723Z,0.80
2018-06-22T01:51:37.258Z,0.80
2018-06-22T01:54:06.552Z,0.60
2018-06-22T01:56:35.631Z,0.60
2018-06-22T01:59:04.709Z,0.80
2018-06-22T02:01:34.076Z,0.53
2018-06-22T02:04:03.363Z,0.77
2018-06-22T02:06:32.757Z,0.80
2018-06-22T02:09:02.287Z,0.80
2018-06-22T02:11:31.608Z,0.50
2018-06-22T02:14:00.914Z,0.70
2018-06-22T02:16:30.206Z,0.60
2018-06-22T02:18:59.274Z,0.50
2018-06-22T02:21:28.632Z,0.80
2018-06-22T02:23:57.919Z,0.60
2018-06-22T02:26:27.257Z,0.70
2018-06-22T02:28:56.655Z,0.90
2018-06-22T02:31:26.028Z,0.53
2018-06-22T02:33:56.059Z,0.60
2018-06-22T02:36:25.581Z,0.80
2018-06-22T02:38:55.500Z,0.80
2018-06-22T02:41:24.812Z,0.80
2018-06-22T02:43:54.319Z,0.70
2018-06-22T02:46:23.603Z,0.80
2018-06-22T02:48:52.941Z,0.60
2018-06-22T02:51:22.471Z,0.80
2018-06-22T02:53:52.066Z,0.50
2018-06-22T02:56:21.400Z,0.50
2018-06-22T02:58:50.504Z,0.60
2018-06-22T03:01:19.601Z,0.60
2018-06-22T03:03:49.226Z,0.60
2018-06-22T03:06:18.541Z,0.77
2018-06-22T03:08:47.627Z,0.80
2018-06-22T03:11:16.705Z,0.70
2018-06-22T03:13:45.788Z,0.50
2018-06-22T03:16:14.869Z,0.87
2018-06-22T03:18:44.212Z,0.63
2018-06-22T03:21:14.201Z,0.60
2018-06-22T03:23:43.488Z,0.60
2018-06-22T03:26:12.813Z,0.70
2018-06-22T03:28:42.100Z,0.60
2018-06-22T03:31:11.411Z,0.70
2018-06-22T03:33:40.715Z,0.60
2018-06-22T03:36:09.780Z,0.60
2018-06-22T03:38:39.101Z,0.60
2018-06-22T03:41:08.402Z,0.60
2018-06-22T03:43:37.710Z,0.50
2018-06-22T03:46:07.247Z,0.70
2018-06-22T03:48:36.750Z,0.60
2018-06-22T03:51:06.058Z,0.60
2018-06-22T03:53:35.602Z,0.90
2018-06-22T03:56:04.906Z,0.50
2018-06-22T03:58:34.255Z,0.60
2018-06-22T04:01:03.800Z,0.80
2018-06-22T04:03:33.124Z,0.60
2018-06-22T04:06:02.431Z,0.60
2018-06-22T04:08:31.740Z,0.60
2018-06-22T04:11:00.850Z,0.47
2018-06-22T04:13:29.969Z,0.60
2018-06-22T04:15:59.437Z,0.60
2018-06-22T04:18:28.865Z,0.50
2018-06-22T04:20:58.198Z,0.73
2018-06-22T04:23:27.737Z,0.67
2018-06-22T04:25:57.281Z,0.60
2018-06-22T04:28:26.604Z,0.60
2018-06-22T04:30:55.921Z,0.60
2018-06-22T04:33:25.230Z,0.63
2018-06-22T04:35:54.570Z,0.60
2018-06-22T04:38:23.869Z,0.70
2018-06-22T04:40:52.948Z,0.60
2018-06-22T04:43:22.259Z,0.60
2018-06-22T04:45:51.879Z,0.60
2018-06-22T04:48:21.159Z,0.67
2018-06-22T04:50:50.238Z,0.63
2018-06-22T04:53:19.552Z,0.50
2018-06-22T04:55:48.848Z,0.80
2018-06-22T04:58:18.210Z,0.90
2018-06-22T05:00:47.775Z,0.93
2018-06-22T05:03:17.323Z,0.70
2018-06-22T05:05:46.640Z,0.60
2018-06-22T05:08:16.026Z,0.70
2018-06-22T05:10:45.354Z,0.80
2018-06-22T05:13:14.829Z,0.50
2018-06-22T05:15:43.942Z,0.60
2018-06-22T05:18:13.256Z,0.80
2018-06-22T05:20:42.836Z,0.63
2018-06-22T05:23:12.388Z,0.70
2018-06-22T05:25:41.690Z,0.70
2018-06-22T05:28:10.779Z,0.63
2018-06-22T05:30:39.870Z,0.60
2018-06-22T05:33:09.185Z,0.60
2018-06-22T05:35:38.500Z,0.70
2018-06-22T05:38:07.850Z,0.60
2018-06-22T05:40:37.596Z,0.63
2018-06-22T05:43:06.921Z,0.60
2018-06-22T05:45:36.246Z,0.60
2018-06-22T05:48:05.791Z,0.60
2018-06-22T05:50:35.095Z,0.80
2018-06-22T05:53:04.584Z,0.50
2018-06-22T05:55:33.897Z,0.60
2018-06-22T05:58:03.262Z,0.90
2018-06-22T06:00:32.571Z,1.13
2018-06-22T06:03:01.670Z,0.80
2018-06-22T06:05:30.995Z,0.80
2018-06-22T06:08:00.299Z,1.00
2018-06-22T06:10:29.609Z,1.50
2018-06-22T06:12:58.909Z,1.90
2018-06-22T06:15:28.242Z,2.07
2018-06-22T06:17:57.797Z,2.40
2018-06-22T06:20:27.346Z,2.87
2018-06-22T06:22:56.702Z,2.40
2018-06-22T06:25:26.029Z,2.20
2018-06-22T06:27:55.325Z,2.40
2018-06-22T06:30:24.430Z,2.70
2018-06-22T06:32:53.516Z,2.80
2018-06-22T06:35:22.847Z,4.23
2018-06-22T06:37:52.169Z,4.70
2018-06-22T06:40:21.506Z,5.27
2018-06-22T06:42:51.117Z,5.50
2018-06-22T06:45:20.666Z,5.40
2018-06-22T06:47:50.004Z,6.03
2018-06-22T06:50:19.311Z,5.77
2018-06-22T06:52:48.840Z,5.33
2018-06-22T06:55:18.197Z,7.43
2018-06-22T06:57:47.276Z,6.30
2018-06-22T07:00:16.344Z,6.93
2018-06-22T07:02:45.647Z,7.57
2018-06-22T07:05:14.753Z,8.07
2018-06-22T07:07:44.088Z,5.60
2018-06-22T07:10:13.404Z,9.77
2018-06-22T07:12:42.540Z,6.67
2018-06-22T07:15:11.930Z,6.43
2018-06-22T07:17:41.296Z,4.97
2018-06-22T07:20:10.669Z,6.20
2018-06-22T07:22:40.275Z,6.17
2018-06-22T07:25:09.830Z,5.13
2018-06-22T07:27:39.267Z,5.87
2018-06-22T07:30:08.406Z,4.70
2018-06-22T07:32:37.480Z,4.97
2018-06-22T07:35:06.855Z,4.07
2018-06-22T07:37:36.429Z,3.40
2018-06-22T07:40:05.764Z,4.17
2018-06-22T07:42:34.909Z,4.53
2018-06-22T07:45:04.319Z,4.60
2018-06-22T07:47:33.711Z,3.67
2018-06-22T07:50:03.254Z,2.60
2018-06-22T07:52:32.862Z,3.00
2018-06-22T07:55:02.597Z,2.73
2018-06-22T07:57:32.048Z,3.10
2018-06-22T08:00:01.393Z,2.50
2018-06-22T08:02:30.835Z,3.13
2018-06-22T08:05:00.211Z,2.50
2018-06-22T08:07:29.541Z,3.33
2018-06-22T08:09:58.637Z,2.30
2018-06-22T08:12:27.994Z,2.13
2018-06-22T08:14:57.320Z,3.60
2018-06-22T08:17:26.673Z,2.97
2018-06-22T08:19:56.223Z,2.30
2018-06-22T08:22:25.777Z,3.13
2018-06-22T08:24:55.345Z,2.40
2018-06-22T08:27:25.377Z,2.60
2018-06-22T08:29:54.974Z,2.60
2018-06-22T08:32:24.517Z,2.40
2018-06-22T08:34:53.853Z,2.50
2018-06-22T08:37:23.261Z,1.83
2018-06-22T08:39:52.835Z,2.63
2018-06-22T08:42:22.477Z,2.60
2018-06-22T08:44:52.021Z,2.60
2018-06-22T08:47:22.237Z,2.20
2018-06-22T08:49:51.631Z,2.67
2018-06-22T08:52:21.030Z,2.13
2018-06-22T08:54:50.588Z,2.67
2018-06-22T08:57:19.907Z,2.17
2018-06-22T08:59:49.011Z,3.20
2018-06-22T09:02:18.360Z,1.80
2018-06-22T09:04:47.663Z,2.53
2018-06-22T09:07:16.755Z,2.17
2018-06-22T09:09:46.126Z,1.87
2018-06-22T09:12:16.133Z,3.30
2018-06-22T09:14:45.668Z,2.40
2018-06-22T09:17:16.296Z,2.27
2018-06-22T09:19:45.730Z,2.03
2018-06-22T09:22:14.742Z,3.60
2018-06-22T09:24:44.107Z,2.70
2018-06-22T09:27:13.416Z,3.60
2018-06-22T09:29:42.499Z,3.27
2018-06-22T09:32:11.586Z,2.83
2018-06-22T09:34:41.424Z,2.63
2018-06-22T09:37:11.058Z,2.40
2018-06-22T09:39:40.734Z,2.27
2018-06-22T09:42:10.124Z,1.90
2018-06-22T09:44:40.249Z,1.87
2018-06-22T09:47:09.612Z,2.03
2018-06-22T09:49:38.796Z,2.33
2018-06-22T09:52:08.600Z,1.67
2018-06-22T09:54:38.000Z,1.93
2018-06-22T09:57:07.599Z,1.80
2018-06-22T09:59:36.956Z,2.60
2018-06-22T10:02:06.336Z,3.90
2018-06-22T10:04:35.698Z,5.23
2018-06-22T10:07:06.786Z,4.67
2018-06-22T10:09:36.115Z,4.07
2018-06-22T10:12:09.228Z,4.00
2018-06-22T10:14:38.932Z,3.90
2018-06-22T10:17:08.914Z,3.93
2018-06-22T10:19:38.129Z,3.67
2018-06-22T10:22:07.543Z,3.87
2018-06-22T10:24:37.015Z,3.50
2018-06-22T10:27:06.625Z,3.20
2018-06-22T10:29:35.734Z,4.37
2018-06-22T10:32:05.150Z,3.53
2018-06-22T10:34:34.451Z,3.47
2018-06-22T10:37:03.801Z,5.43
2018-06-22T10:39:33.164Z,4.03
2018-06-22T10:42:02.309Z,4.87
2018-06-22T10:44:31.420Z,3.43
2018-06-22T10:47:00.520Z,3.60
2018-06-22T10:49:29.624Z,2.80
2018-06-22T10:51:58.979Z,3.20
2018-06-22T10:54:28.308Z,3.87
2018-06-22T10:56:57.656Z,3.90
2018-06-22T10:59:27.434Z,3.30
2018-06-22T11:01:56.775Z,3.60
2018-06-22T11:04:25.855Z,3.07
2018-06-22T11:06:55.262Z,3.63
2018-06-22T11:09:24.346Z,3.63
2018-06-22T11:17:22.197Z,3.30
2018-06-22T11:19:51.178Z,3.60
2018-06-22T11:22:20.634Z,3.50
2018-06-22T11:24:50.155Z,3.30
2018-06-22T11:27:19.473Z,4.00
2018-06-22T11:29:48.759Z,3.63
2018-06-22T11:32:17.871Z,3.20
2018-06-22T11:34:47.240Z,3.13
2018-06-22T11:37:16.554Z,3.93
2018-06-22T11:39:45.831Z,3.10
2018-06-22T11:42:14.985Z,2.77
2018-06-22T11:44:44.125Z,2.20
2018-06-22T11:47:13.230Z,2.40
2018-06-22T11:49:42.584Z,2.13
2018-06-22T11:52:12.131Z,3.23
2018-06-22T11:54:41.695Z,2.80
2018-06-22T11:57:11.046Z,2.83
2018-06-22T11:59:40.738Z,2.97
2018-06-22T12:02:10.299Z,3.37
2018-06-22T12:04:39.595Z,2.63
2018-06-22T12:07:09.572Z,2.93
2018-06-22T12:09:39.142Z,3.37
2018-06-22T12:12:08.682Z,2.50
2018-06-22T12:14:37.996Z,3.03
2018-06-22T12:17:07.107Z,3.60
2018-06-22T12:19:36.212Z,3.10
2018-06-22T12:22:05.540Z,2.80
2018-06-22T12:24:35.314Z,2.37
2018-06-22T12:27:04.628Z,2.80
2018-06-22T12:29:34.181Z,2.83
2018-06-22T12:32:03.483Z,2.70
2018-06-22T12:34:33.099Z,2.63
2018-06-22T12:37:02.441Z,3.10
2018-06-22T12:39:32.023Z,2.80
2018-06-22T12:42:01.511Z,2.77
2018-06-22T12:44:31.531Z,1.83
2018-06-22T12:47:00.886Z,2.10
2018-06-22T12:49:29.975Z,2.20
2018-06-22T12:51:59.318Z,2.20
2018-06-22T12:54:28.636Z,2.40
2018-06-22T12:56:57.718Z,3.67
2018-06-22T12:59:26.834Z,2.67
2018-06-22T13:01:56.179Z,3.00
2018-06-22T13:04:25.270Z,3.47
2018-06-22T13:06:54.568Z,3.20
2018-06-22T13:09:23.884Z,2.83
2018-06-22T13:11:52.968Z,2.80
2018-06-22T13:14:22.062Z,2.80
2018-06-22T13:16:51.429Z,2.57
2018-06-22T13:19:20.980Z,3.23
2018-06-22T13:21:51.480Z,2.83
2018-06-22T13:24:22.185Z,3.00
2018-06-22T13:26:52.110Z,3.13
2018-06-22T13:29:21.649Z,3.70
2018-06-22T13:31:51.200Z,3.57
2018-06-22T13:34:20.524Z,3.17
2018-06-22T13:36:49.851Z,2.77
2018-06-22T13:39:19.698Z,2.53
2018-06-22T13:41:48.839Z,3.80
2018-06-22T13:44:18.165Z,2.97
2018-06-22T13:46:47.472Z,3.50
2018-06-22T13:49:16.862Z,3.83
2018-06-22T13:51:46.411Z,4.23
2018-06-22T13:54:15.726Z,4.53
2018-06-22T13:56:44.855Z,4.30
2018-06-22T13:59:14.421Z,4.23
2018-06-22T14:01:43.518Z,4.67
2018-06-22T14:04:18.327Z,4.20
2018-06-22T14:06:51.205Z,4.40
2018-06-22T14:09:20.371Z,4.47
2018-06-22T14:11:49.755Z,5.10
2018-06-22T14:14:19.318Z,4.50
2018-06-22T14:16:55.154Z,5.63
2018-06-22T14:19:24.508Z,3.93
2018-06-22T14:21:54.053Z,4.93
2018-06-22T14:24:23.350Z,4.20
2018-06-22T14:26:52.674Z,4.30
2018-06-22T14:29:22.006Z,3.43
2018-06-22T14:31:51.105Z,3.90
2018-06-22T14:34:20.411Z,4.47
2018-06-22T14:36:49.966Z,4.90
2018-06-22T14:39:19.511Z,5.27
2018-06-22T14:41:49.040Z,4.00
2018-06-22T14:44:18.570Z,3.87
2018-06-22T14:46:47.879Z,3.53
2018-06-22T14:49:17.230Z,3.73
2018-06-22T14:51:46.544Z,3.13
2018-06-22T14:54:21.155Z,3.17
2018-06-22T14:56:55.812Z,4.50
2018-06-22T14:59:30.555Z,5.20
2018-06-22T15:02:05.357Z,3.57
2018-06-22T15:04:40.443Z,3.60
2018-06-22T15:07:15.137Z,3.77
2018-06-22T15:09:44.272Z,3.90
2018-06-22T15:12:13.605Z,3.20
2018-06-22T15:14:43.231Z,3.77
2018-06-22T15:17:13.664Z,2.83
2018-06-22T15:19:44.594Z,4.10
2018-06-22T15:22:14.632Z,4.10
2018-06-22T15:24:43.951Z,3.80
2018-06-22T15:27:13.057Z,2.63
2018-06-22T15:29:42.460Z,3.20
2018-06-22T15:32:12.317Z,4.43
2018-06-22T15:34:47.231Z,3.10
2018-06-22T15:37:21.854Z,3.10
2018-06-22T15:39:56.674Z,2.83
2018-06-22T15:42:31.345Z,2.87
2018-06-22T15:45:06.280Z,2.90
2018-06-22T15:47:41.386Z,3.23
2018-06-22T15:50:16.192Z,2.93
2018-06-22T15:52:50.940Z,3.70
2018-06-22T15:55:22.014Z,3.23
2018-06-22T15:57:51.370Z,3.20
2018-06-22T16:00:20.689Z,3.13
2018-06-22T16:02:55.569Z,2.80
2018-06-22T16:05:24.857Z,2.03
2018-06-22T16:07:53.986Z,3.23
2018-06-22T16:10:23.101Z,3.03
2018-06-22T16:12:52.432Z,3.27
2018-06-22T16:15:27.069Z,3.40
2018-06-22T16:18:01.721Z,3.20
2018-06-22T16:20:36.561Z,2.60
2018-06-22T16:23:11.438Z,3.20
2018-06-22T16:25:45.989Z,2.60
2018-06-22T16:28:15.092Z,3.47
2018-06-22T16:30:44.189Z,3.30
2018-06-22T16:33:13.269Z,3.03
2018-06-22T16:35:42.356Z,2.73
2018-06-22T16:38:11.690Z,3.50
2018-06-22T16:40:41.244Z,2.60
2018-06-22T16:43:10.542Z,5.17
2018-06-22T16:45:39.900Z,2.80
2018-06-22T16:48:09.192Z,2.90
2018-06-22T16:50:38.543Z,2.30
2018-06-22T16:53:07.841Z,2.87
2018-06-22T16:55:36.955Z,2.83
2018-06-22T16:58:10.396Z,2.30
2018-06-22T17:00:39.796Z,3.50
2018-06-22T17:03:09.400Z,2.37
2018-06-22T17:05:38.728Z,3.00
2018-06-22T17:08:13.486Z,3.40
2018-06-22T17:10:48.363Z,3.50
2018-06-22T17:13:23.245Z,3.17
2018-06-22T17:15:58.089Z,3.53
2018-06-22T17:18:32.882Z,3.27
2018-06-22T17:21:02.469Z,2.90
2018-06-22T17:23:31.575Z,2.83
2018-06-22T17:26:00.696Z,2.40
2018-06-22T17:28:30.021Z,2.63
2018-06-22T17:30:59.316Z,3.20
2018-06-22T17:33:28.709Z,3.00
2018-06-22T17:35:58.473Z,2.97
2018-06-22T17:38:28.005Z,2.93
2018-06-22T17:40:57.299Z,2.43
2018-06-22T17:43:27.033Z,3.30
2018-06-22T17:45:56.632Z,2.53
2018-06-22T17:48:26.449Z,3.90
2018-06-22T17:50:55.787Z,2.47
2018-06-22T17:53:25.124Z,2.67
2018-06-22T17:55:54.444Z,2.37
2018-06-22T17:58:24.349Z,2.30
2018-06-22T18:00:59.654Z,3.10
2018-06-22T18:03:34.367Z,2.97
2018-06-22T18:06:09.109Z,2.50
2018-06-22T18:08:43.181Z,3.40
2018-06-22T18:11:17.941Z,3.03
2018-06-22T18:13:47.008Z,2.43
2018-06-22T18:16:16.324Z,2.00
2018-06-22T18:18:45.662Z,2.57
2018-06-22T18:21:14.982Z,2.30
2018-06-22T18:23:44.563Z,2.50
2018-06-22T18:26:14.153Z,2.10
2018-06-22T18:28:43.491Z,2.50
2018-06-22T18:31:12.831Z,2.77
2018-06-22T18:33:42.146Z,2.50
2018-06-22T18:36:11.469Z,2.20
2018-06-22T18:38:41.037Z,2.20
2018-06-22T18:41:10.400Z,2.30
2018-06-22T18:43:45.037Z,2.47
2018-06-22T18:46:14.406Z,3.13
2018-06-22T18:48:43.768Z,2.67
2018-06-22T18:51:13.073Z,2.20
2018-06-22T18:53:47.900Z,2.40
2018-06-22T18:56:22.662Z,2.07
2018-06-22T18:58:57.640Z,2.20
2018-06-22T19:03:33.421Z,2.90
2018-06-22T19:06:03.041Z,2.00
2018-06-22T19:08:32.435Z,2.50
2018-06-22T19:11:02.145Z,2.17
2018-06-22T19:13:31.490Z,2.20
2018-06-22T19:16:01.067Z,2.80
2018-06-22T19:18:30.600Z,2.50
2018-06-22T19:20:59.669Z,2.20
2018-06-22T19:23:28.763Z,2.33
2018-06-22T19:25:58.101Z,2.40
2018-06-22T19:28:27.659Z,2.50
2018-06-22T19:30:56.991Z,2.40
2018-06-22T19:33:26.468Z,2.67
2018-06-22T19:35:55.874Z,2.23
2018-06-22T19:38:25.216Z,3.00
2018-06-22T19:40:55.021Z,2.10
2018-06-22T19:43:30.033Z,2.30
2018-06-22T19:46:04.742Z,2.40
2018-06-22T19:48:39.220Z,2.37
2018-06-22T19:51:13.746Z,2.30
2018-06-22T19:53:48.948Z,2.30
2018-06-22T19:56:18.252Z,2.50
2018-06-22T19:58:47.590Z,2.20
2018-06-22T20:01:16.918Z,2.10
2018-06-22T20:03:46.241Z,2.40
2018-06-22T20:06:15.791Z,2.10
2018-06-22T20:08:45.481Z,2.57
2018-06-22T20:11:14.552Z,2.60
2018-06-22T20:13:45.315Z,2.13
2018-06-22T20:16:15.785Z,2.40
2018-06-22T20:18:45.276Z,2.13
2018-06-22T20:21:14.576Z,2.50
2018-06-22T20:23:43.969Z,2.40
2018-06-22T20:26:13.027Z,3.00
2018-06-22T20:28:42.160Z,2.47
2018-06-22T20:31:23.671Z,1.87
2018-06-22T20:33:53.271Z,2.20
2018-06-22T20:36:28.111Z,2.07
2018-06-22T20:39:02.887Z,2.30
2018-06-22T20:41:37.693Z,2.70
2018-06-22T20:44:12.544Z,2.20
2018-06-22T20:46:47.197Z,2.40
2018-06-22T20:49:22.122Z,1.73
2018-06-22T20:51:51.474Z,2.27
2018-06-22T20:54:20.532Z,1.80
2018-06-22T20:56:49.657Z,1.90
2018-06-22T20:59:18.749Z,1.43
2018-06-22T21:01:47.870Z,2.63
2018-06-22T21:04:16.961Z,1.80
2018-06-22T21:06:46.061Z,2.37
2018-06-22T21:09:15.203Z,2.37
2018-06-22T21:11:44.769Z,1.93
2018-06-22T21:14:13.858Z,1.90
2018-06-22T21:16:42.934Z,2.37
2018-06-22T21:19:12.274Z,1.83
2018-06-22T21:21:47.289Z,1.70
2018-06-22T21:24:16.609Z,2.17
2018-06-22T21:26:45.929Z,2.33
2018-06-22T21:29:20.677Z,2.37
2018-06-22T21:31:55.364Z,2.03
2018-06-22T21:34:30.246Z,2.30
2018-06-22T21:37:04.974Z,2.20
2018-06-22T21:39:34.245Z,2.50
2018-06-22T21:42:03.566Z,2.00
2018-06-22T21:44:32.860Z,2.10
2018-06-22T21:47:02.222Z,3.10
2018-06-22T21:49:31.989Z,2.10
2018-06-22T21:52:01.559Z,1.70
2018-06-22T21:54:30.876Z,2.00
2018-06-22T21:56:59.946Z,2.17
2018-06-22T21:59:29.012Z,1.63
2018-06-22T22:01:58.667Z,1.83
2018-06-22T22:04:28.463Z,2.27
2018-06-22T22:06:58.356Z,1.70
2018-06-22T22:09:32.056Z,2.27
2018-06-22T22:12:01.147Z,2.33
2018-06-22T22:14:30.488Z,1.87
2018-06-22T22:16:59.795Z,1.80
2018-06-22T22:19:29.562Z,1.63
2018-06-22T22:21:59.181Z,2.10
2018-06-22T22:24:28.730Z,1.93
2018-06-22T22:26:58.033Z,2.10
2018-06-22T22:29:27.417Z,1.40
2018-06-22T22:31:56.711Z,2.30
2018-06-22T22:34:26.874Z,1.73
2018-06-22T22:36:56.165Z,1.63
2018-06-22T22:39:25.267Z,2.40
2018-06-22T22:41:54.630Z,1.97
2018-06-22T22:44:24.203Z,1.83
2018-06-22T22:46:53.508Z,1.60
2018-06-22T22:49:22.937Z,2.10
2018-06-22T22:51:52.488Z,2.53
2018-06-22T22:54:21.800Z,1.80
2018-06-22T22:56:51.333Z,1.73
2018-06-22T22:59:20.443Z,2.33
2018-06-22T23:01:49.752Z,2.47
2018-06-22T23:04:19.293Z,2.10
2018-06-22T23:06:48.857Z,1.73
2018-06-22T23:09:18.231Z,1.93
2018-06-22T23:11:47.744Z,3.17
2018-06-22T23:14:16.837Z,1.63
2018-06-22T23:16:45.907Z,1.67
2018-06-22T23:19:15.024Z,1.50
2018-06-22T23:21:44.354Z,1.63
2018-06-22T23:24:13.642Z,1.90
2018-06-22T23:26:42.743Z,1.67
2018-06-22T23:29:11.820Z,1.30
2018-06-22T23:31:41.157Z,1.20
2018-06-22T23:34:10.477Z,2.03
2018-06-22T23:36:39.556Z,1.63
2018-06-22T23:39:10.207Z,1.73
2018-06-22T23:41:39.601Z,1.70
2018-06-22T23:44:08.678Z,2.17
2018-06-22T23:46:37.760Z,1.57
2018-06-22T23:49:07.201Z,1.40
2018-06-22T23:51:36.520Z,1.60
2018-06-22T23:54:06.143Z,1.50
2018-06-22T23:56:35.455Z,1.63
2018-06-22T23:59:04.821Z,2.10
